Time;durP1;ratioP1;P1;durP2;ratioP2;P2;SDS_P1;SDS_P2;PMS_P1;PMS_P2;Temp;Humidity;BMP_temperature;BMP_pressure;BME280_temperature;BME280_humidity;BME280_pressure;Samples;Min_cycle;Max_cycle;Signal;HPM_P1;HPM_P2
2022/01/26 00:05:49;;;;;;;29.47;26.40;;;;;;;;;;5024586;28;20234;-66
2022/01/26 00:06:44;;;;;;;32.13;28.80;;;;;;;;;;5013360;28;20668;-67
2022/01/26 00:09:15;;;;;;;30.13;26.97;;;;;;;;;;5008282;28;20211;-67
2022/01/26 00:11:47;;;;;;;29.77;26.63;;;;;;;;;;5030554;28;20199;-67
2022/01/26 00:14:19;;;;;;;30.27;27.07;;;;;;;;;;5030875;28;20199;-67
2022/01/26 00:16:49;;;;;;;31.30;27.97;;;;;;;;;;5038257;28;20535;-67
2022/01/26 00:19:23;;;;;;;31.43;28.07;;;;;;;;;;5036269;28;20245;-67
2022/01/26 00:21:56;;;;;;;32.53;29.13;;;;;;;;;;5010980;28;20240;-67
2022/01/26 00:27:35;;;;;;;31.03;27.70;;;;;;;;;;5022137;28;20236;-67
2022/01/26 00:34:17;;;;;;;33.37;29.87;;;;;;;;;;5024939;28;20207;-66
2022/01/26 00:38:52;;;;;;;32.77;29.17;;;;;;;;;;5026994;28;20257;-66
2022/01/26 00:41:34;;;;;;;34.97;30.47;;;;;;;;;;5022859;28;20214;-67
2022/01/26 00:44:09;;;;;;;32.53;29.07;;;;;;;;;;5029531;28;20231;-67
2022/01/26 00:46:48;;;;;;;33.73;30.10;;;;;;;;;;5020676;28;20194;-67
2022/01/26 00:49:21;;;;;;;32.60;29.13;;;;;;;;;;5006438;28;20213;-67
2022/01/26 00:51:55;;;;;;;32.17;28.67;;;;;;;;;;5022688;28;20265;-67
2022/01/26 00:54:27;;;;;;;33.70;29.33;;;;;;;;;;5009733;28;20199;-67
2022/01/26 00:57:01;;;;;;;32.10;28.63;;;;;;;;;;5012595;28;20199;-67
2022/01/26 00:59:30;;;;;;;33.50;29.93;;;;;;;;;;5025255;28;20740;-66
2022/01/26 01:01:58;;;;;;;33.13;29.20;;;;;;;;;;5026326;28;20523;-67
2022/01/26 01:04:29;;;;;;;32.77;29.30;;;;;;;;;;5022112;28;20269;-66
2022/01/26 01:07:04;;;;;;;32.53;29.10;;;;;;;;;;5026952;28;20256;-66
2022/01/26 01:09:44;;;;;;;31.57;28.23;;;;;;;;;;5027925;28;20199;-66
2022/01/26 01:12:14;;;;;;;32.63;29.10;;;;;;;;;;5027618;28;20293;-66
2022/01/26 01:14:45;;;;;;;31.47;28.17;;;;;;;;;;5011714;28;20245;-66
2022/01/26 01:17:22;;;;;;;31.27;27.87;;;;;;;;;;5022368;28;20221;-67
2022/01/26 01:23:11;;;;;;;31.20;27.90;;;;;;;;;;5026041;28;20679;-66
2022/01/26 01:31:58;;;;;;;33.37;29.50;;;;;;;;;;5023267;28;21609;-67
2022/01/26 01:34:26;;;;;;;30.70;27.40;;;;;;;;;;5026140;28;20277;-67
2022/01/26 01:37:01;;;;;;;32.37;28.97;;;;;;;;;;5012486;28;20239;-66
2022/01/26 01:39:38;;;;;;;31.07;27.67;;;;;;;;;;5004023;28;20235;-67
2022/01/26 01:42:12;;;;;;;33.30;29.70;;;;;;;;;;4992600;28;20194;-67
2022/01/26 01:44:42;;;;;;;29.00;26.00;;;;;;;;;;5005680;28;20814;-67
2022/01/26 01:47:11;;;;;;;32.23;28.50;;;;;;;;;;4982401;28;20700;-66
2022/01/26 01:49:42;;;;;;;30.13;26.87;;;;;;;;;;5001118;28;20246;-66
2022/01/26 01:52:14;;;;;;;31.57;28.27;;;;;;;;;;5003262;28;20204;-66
2022/01/26 01:54:50;;;;;;;30.50;27.30;;;;;;;;;;5005774;28;20233;-66
2022/01/26 01:57:25;;;;;;;30.67;27.37;;;;;;;;;;5003578;28;20203;-67
2022/01/26 01:59:58;;;;;;;31.67;28.37;;;;;;;;;;5007190;28;20219;-67
2022/01/26 02:02:29;;;;;;;30.43;27.23;;;;;;;;;;5008343;28;20799;-67
2022/01/26 02:05:02;;;;;;;31.47;28.10;;;;;;;;;;4993939;28;20214;-67
2022/01/26 02:07:34;;;;;;;31.27;27.97;;;;;;;;;;4991544;28;20191;-67
2022/01/26 02:10:04;;;;;;;30.23;26.97;;;;;;;;;;5007830;28;20253;-67
2022/01/26 02:12:37;;;;;;;29.50;26.47;;;;;;;;;;5008730;28;20294;-67
2022/01/26 02:15:15;;;;;;;29.47;26.27;;;;;;;;;;5004124;28;20577;-67
2022/01/26 03:03:34;;;;;;;29.90;25.53;;;;;;;;;;5018841;28;20211;-67
2022/01/26 03:06:11;;;;;;;29.00;25.90;;;;;;;;;;5025717;28;20214;-68
2022/01/26 03:08:51;;;;;;;29.07;25.90;;;;;;;;;;5023679;28;20718;-67
2022/01/26 03:11:26;;;;;;;28.30;25.30;;;;;;;;;;5031718;28;20208;-67
2022/01/26 03:14:11;;;;;;;29.00;25.43;;;;;;;;;;5025147;28;20198;-68
2022/01/26 03:16:47;;;;;;;29.17;25.90;;;;;;;;;;5021957;28;20222;-67
2022/01/26 03:28:14;;;;;;;29.60;26.30;;;;;;;;;;5027930;28;20199;-67
2022/01/26 03:36:12;;;;;;;28.83;25.73;;;;;;;;;;5031294;28;20322;-67
2022/01/26 03:38:45;;;;;;;28.30;25.23;;;;;;;;;;5025494;28;20195;-67
2022/01/26 03:43:54;;;;;;;28.87;25.77;;;;;;;;;;5012037;28;20191;-68
2022/01/26 03:46:29;;;;;;;27.63;24.63;;;;;;;;;;5007324;28;20229;-67
2022/01/26 03:49:06;;;;;;;26.63;23.80;;;;;;;;;;5027715;28;20194;-67
2022/01/26 03:51:38;;;;;;;27.53;24.67;;;;;;;;;;5024695;28;20209;-67
2022/01/26 03:54:09;;;;;;;29.03;25.43;;;;;;;;;;5006130;28;20654;-67
2022/01/26 03:56:39;;;;;;;28.77;25.50;;;;;;;;;;5028950;28;20215;-67
2022/01/26 03:59:14;;;;;;;29.77;25.50;;;;;;;;;;5012766;28;20199;-67
2022/01/26 04:01:46;;;;;;;31.80;25.73;;;;;;;;;;5012420;28;20237;-67
2022/01/26 04:04:16;;;;;;;29.07;25.97;;;;;;;;;;5034958;28;20214;-67
2022/01/26 04:06:45;;;;;;;28.37;25.33;;;;;;;;;;5027215;28;20282;-67
2022/01/26 04:09:20;;;;;;;29.93;25.10;;;;;;;;;;5013474;28;20215;-67
2022/01/26 04:11:50;;;;;;;28.87;24.93;;;;;;;;;;5028846;28;20218;-67
2022/01/26 04:14:23;;;;;;;29.23;25.20;;;;;;;;;;5034674;28;20227;-67
2022/01/26 04:16:56;;;;;;;27.87;24.40;;;;;;;;;;5022248;28;20517;-67
2022/01/26 04:19:32;;;;;;;28.57;25.27;;;;;;;;;;5011726;28;20210;-67
2022/01/26 04:22:16;;;;;;;29.30;25.97;;;;;;;;;;5028624;28;20203;-68
2022/01/26 04:24:52;;;;;;;27.93;24.93;;;;;;;;;;5029792;28;20335;-67
2022/01/26 04:27:40;;;;;;;28.30;25.20;;;;;;;;;;5024397;28;20946;-68
2022/01/26 04:30:14;;;;;;;28.03;24.73;;;;;;;;;;5027184;28;20700;-68
2022/01/26 04:32:45;;;;;;;31.53;25.30;;;;;;;;;;5035530;28;20241;-68
2022/01/26 04:35:15;;;;;;;27.60;24.60;;;;;;;;;;5031585;28;20234;-68
2022/01/26 04:38:14;;;;;;;28.17;25.17;;;;;;;;;;5024330;28;20283;-71
2022/01/26 04:41:10;;;;;;;28.53;24.90;;;;;;;;;;5026725;28;20545;-68
2022/01/26 04:43:47;;;;;;;29.50;25.07;;;;;;;;;;5022200;28;20421;-68
2022/01/26 04:46:15;;;;;;;26.93;24.00;;;;;;;;;;5028534;28;20497;-68
2022/01/26 04:48:50;;;;;;;29.60;25.43;;;;;;;;;;5018233;28;20204;-68
2022/01/26 04:51:20;;;;;;;29.53;25.47;;;;;;;;;;5030945;28;20210;-68
2022/01/26 04:53:52;;;;;;;28.60;24.73;;;;;;;;;;5016126;28;20231;-68
2022/01/26 04:56:22;;;;;;;27.90;24.67;;;;;;;;;;5027595;28;20222;-68
2022/01/26 04:58:54;;;;;;;27.30;24.27;;;;;;;;;;5023357;28;20221;-68
2022/01/26 05:01:23;;;;;;;26.90;23.60;;;;;;;;;;5012419;28;20343;-68
2022/01/26 05:03:53;;;;;;;28.90;24.53;;;;;;;;;;5028560;28;20636;-68
2022/01/26 05:06:25;;;;;;;27.83;24.57;;;;;;;;;;5022343;28;20222;-68
2022/01/26 05:08:56;;;;;;;26.30;23.40;;;;;;;;;;5019936;28;20187;-67
2022/01/26 05:11:41;;;;;;;28.23;25.13;;;;;;;;;;5025424;28;20684;-67
2022/01/26 05:14:11;;;;;;;28.43;24.23;;;;;;;;;;5028045;28;20552;-67
2022/01/26 05:16:40;;;;;;;28.03;24.33;;;;;;;;;;5033393;28;20206;-67
2022/01/26 05:19:11;;;;;;;30.87;25.27;;;;;;;;;;5020840;28;20306;-68
2022/01/26 05:21:41;;;;;;;28.53;24.67;;;;;;;;;;5015579;28;20214;-67
2022/01/26 05:24:11;;;;;;;32.10;25.40;;;;;;;;;;5026659;28;20245;-67
2022/01/26 05:26:43;;;;;;;29.83;25.43;;;;;;;;;;5029017;28;20568;-67
2022/01/26 05:29:15;;;;;;;29.57;26.37;;;;;;;;;;5022347;28;20273;-68
2022/01/26 05:31:45;;;;;;;32.03;27.00;;;;;;;;;;5012809;28;20210;-67
2022/01/26 05:34:15;;;;;;;33.20;26.90;;;;;;;;;;5027426;28;20211;-67
2022/01/26 05:36:49;;;;;;;30.30;25.80;;;;;;;;;;5027319;28;20321;-67
2022/01/26 05:39:22;;;;;;;34.97;26.63;;;;;;;;;;5025674;28;20191;-67
2022/01/26 05:41:51;;;;;;;36.33;28.40;;;;;;;;;;5009265;28;20231;-67
2022/01/26 05:44:22;;;;;;;32.83;27.00;;;;;;;;;;5027599;28;20203;-67
2022/01/26 05:46:53;;;;;;;31.73;27.07;;;;;;;;;;5027393;28;20206;-67
2022/01/26 05:49:25;;;;;;;32.43;27.53;;;;;;;;;;5027357;28;20342;-67
2022/01/26 05:51:55;;;;;;;33.43;27.70;;;;;;;;;;5023391;28;20204;-67
2022/01/26 05:54:23;;;;;;;34.90;29.07;;;;;;;;;;5007878;28;20244;-67
2022/01/26 05:56:54;;;;;;;33.67;27.20;;;;;;;;;;5023226;28;20207;-67
2022/01/26 05:59:24;;;;;;;33.97;28.03;;;;;;;;;;5050261;28;20551;-67
2022/01/26 06:01:57;;;;;;;32.97;27.17;;;;;;;;;;5012695;28;20218;-67
2022/01/26 06:04:28;;;;;;;32.07;26.60;;;;;;;;;;5021498;28;20215;-67
2022/01/26 06:07:13;;;;;;;34.30;28.43;;;;;;;;;;5028265;28;20613;-67
2022/01/26 06:09:45;;;;;;;34.33;28.47;;;;;;;;;;5035180;28;20191;-67
2022/01/26 06:12:14;;;;;;;32.33;26.87;;;;;;;;;;5029729;28;20216;-67
2022/01/26 06:14:43;;;;;;;33.70;27.37;;;;;;;;;;5028540;28;20211;-67
2022/01/26 06:17:11;;;;;;;34.70;28.20;;;;;;;;;;5018485;28;20213;-67
2022/01/26 06:19:41;;;;;;;38.10;28.00;;;;;;;;;;5025417;28;20210;-67
2022/01/26 06:22:12;;;;;;;32.57;27.30;;;;;;;;;;5027745;28;20226;-68
2022/01/26 06:24:44;;;;;;;34.90;27.80;;;;;;;;;;5028597;28;20624;-67
2022/01/26 06:27:13;;;;;;;34.67;28.17;;;;;;;;;;5024136;28;20195;-67
2022/01/26 06:29:45;;;;;;;33.03;27.30;;;;;;;;;;5027916;28;20233;-67
2022/01/26 06:32:17;;;;;;;37.97;30.87;;;;;;;;;;5025996;28;20242;-67
2022/01/26 06:34:48;;;;;;;33.50;27.60;;;;;;;;;;5022667;28;20213;-68
2022/01/26 06:37:22;;;;;;;36.37;28.87;;;;;;;;;;5023173;28;20242;-68
2022/01/26 06:39:54;;;;;;;35.60;28.90;;;;;;;;;;5015964;28;20218;-68
2022/01/26 06:42:28;;;;;;;34.17;27.60;;;;;;;;;;5016032;28;20234;-68
2022/01/26 06:45:14;;;;;;;36.97;29.57;;;;;;;;;;5029988;28;20226;-68
2022/01/26 06:50:32;;;;;;;36.50;29.37;;;;;;;;;;5019742;28;20203;-67
2022/01/26 06:53:04;;;;;;;36.60;28.83;;;;;;;;;;5018908;28;20589;-67
2022/01/26 06:55:35;;;;;;;37.33;29.83;;;;;;;;;;5023611;28;20206;-67
2022/01/26 06:58:10;;;;;;;37.50;30.03;;;;;;;;;;5023394;28;20278;-68
2022/01/26 07:00:39;;;;;;;36.80;30.53;;;;;;;;;;5027253;28;20536;-70
2022/01/26 07:03:11;;;;;;;36.40;29.10;;;;;;;;;;5027304;28;20476;-67
2022/01/26 07:05:43;;;;;;;39.70;30.77;;;;;;;;;;5006404;28;20215;-67
2022/01/26 07:08:16;;;;;;;38.50;30.87;;;;;;;;;;5024738;28;20227;-68
2022/01/26 07:10:53;;;;;;;37.50;29.40;;;;;;;;;;5033031;28;20187;-66
2022/01/26 07:13:40;;;;;;;37.17;29.77;;;;;;;;;;5022973;28;20305;-67
2022/01/26 07:21:52;;;;;;;36.30;29.80;;;;;;;;;;5036594;28;20218;-66
2022/01/26 07:24:24;;;;;;;37.53;29.27;;;;;;;;;;5022280;28;20195;-65
2022/01/26 07:26:54;;;;;;;37.37;30.33;;;;;;;;;;5029959;28;20191;-65
2022/01/26 07:29:25;;;;;;;36.53;28.83;;;;;;;;;;5029028;28;20621;-65
2022/01/26 07:31:53;;;;;;;34.90;28.87;;;;;;;;;;5030247;28;20203;-65
2022/01/26 07:34:23;;;;;;;33.75;27.73;;;;;;;;;;5022344;28;20896;-67
2022/01/26 07:37:00;;;;;;;36.00;29.00;;;;;;;;;;5033140;28;20239;-67
2022/01/26 07:39:44;;;;;;;50.33;28.60;;;;;;;;;;5027928;28;20225;-64
2022/01/26 07:42:19;;;;;;;41.13;28.13;;;;;;;;;;5021001;28;20293;-69
2022/01/26 07:44:50;;;;;;;38.47;26.27;;;;;;;;;;5028622;28;20660;-68
2022/01/26 07:47:40;;;;;;;42.07;25.57;;;;;;;;;;5028209;28;20203;-68
2022/01/26 07:50:20;;;;;;;39.80;24.70;;;;;;;;;;5030297;28;20214;-67
2022/01/26 07:53:35;;;;;;;30.70;21.43;;;;;;;;;;5022346;28;20520;-71
2022/01/26 07:56:06;;;;;;;31.00;21.70;;;;;;;;;;5027931;28;20203;-69
2022/01/26 07:58:47;;;;;;;29.67;20.17;;;;;;;;;;5025420;28;20899;-67
2022/01/26 08:01:19;;;;;;;25.80;18.87;;;;;;;;;;5039115;28;20210;-68
2022/01/26 08:04:03;;;;;;;25.67;19.20;;;;;;;;;;5029458;28;20282;-68
2022/01/26 08:06:37;;;;;;;24.73;18.17;;;;;;;;;;5024170;28;20218;-69
2022/01/26 08:09:07;;;;;;;20.80;16.63;;;;;;;;;;5025153;28;20280;-68
2022/01/26 08:11:40;;;;;;;21.77;17.00;;;;;;;;;;5024797;28;20204;-68
2022/01/26 08:14:09;;;;;;;25.07;17.03;;;;;;;;;;5028013;28;20207;-68
2022/01/26 08:16:40;;;;;;;22.77;16.97;;;;;;;;;;5025548;28;20559;-66
2022/01/26 08:19:17;;;;;;;19.00;16.87;;;;;;;;;;5022725;28;20238;-66
2022/01/26 08:22:02;;;;;;;19.63;15.83;;;;;;;;;;5028070;28;20261;-69
2022/01/26 08:24:32;;;;;;;18.90;15.77;;;;;;;;;;5024073;28;20234;-69
2022/01/26 08:27:11;;;;;;;17.63;15.00;;;;;;;;;;5009994;28;20187;-69
2022/01/26 08:29:50;;;;;;;17.63;15.30;;;;;;;;;;5019219;28;20301;-70
2022/01/26 08:32:20;;;;;;;16.60;14.80;;;;;;;;;;5015999;28;20207;-69
2022/01/26 08:34:47;;;;;;;17.90;15.87;;;;;;;;;;5026480;28;20199;-72
2022/01/26 08:37:14;;;;;;;17.60;15.80;;;;;;;;;;5027547;28;20293;-70
2022/01/26 08:39:46;;;;;;;16.17;14.47;;;;;;;;;;4999648;28;20244;-70
2022/01/26 08:42:16;;;;;;;15.83;14.10;;;;;;;;;;4991664;28;20238;-69
2022/01/26 08:44:46;;;;;;;16.47;14.67;;;;;;;;;;5024243;28;20267;-71
2022/01/26 08:47:17;;;;;;;17.07;14.67;;;;;;;;;;5028573;28;20226;-71
2022/01/26 08:49:45;;;;;;;15.97;14.30;;;;;;;;;;5038886;28;20215;-71
2022/01/26 08:52:14;;;;;;;27.50;23.70;;;;;;;;;;5013611;28;20209;-68
2022/01/26 08:54:46;;;;;;;25.33;22.17;;;;;;;;;;5025751;28;20238;-66
2022/01/26 08:57:17;;;;;;;20.20;18.00;;;;;;;;;;5026540;28;20272;-70
2022/01/26 08:59:52;;;;;;;20.57;17.43;;;;;;;;;;5026263;28;20214;-70
2022/01/26 09:02:24;;;;;;;18.33;16.40;;;;;;;;;;5008543;28;20229;-69
2022/01/26 09:04:56;;;;;;;17.50;15.73;;;;;;;;;;5021935;28;20652;-68
2022/01/26 09:07:25;;;;;;;16.83;15.13;;;;;;;;;;5009976;28;20289;-70
2022/01/26 09:09:59;;;;;;;18.10;15.40;;;;;;;;;;5027514;28;20245;-68
2022/01/26 09:12:35;;;;;;;16.27;14.43;;;;;;;;;;5010497;28;20213;-69
2022/01/26 09:15:09;;;;;;;16.40;13.83;;;;;;;;;;5026594;28;20290;-69
2022/01/26 09:17:42;;;;;;;15.33;13.60;;;;;;;;;;5020530;28;20211;-72
2022/01/26 09:20:11;;;;;;;15.53;13.93;;;;;;;;;;5022186;28;20249;-67
2022/01/26 09:22:40;;;;;;;14.97;13.57;;;;;;;;;;5004719;28;20230;-70
2022/01/26 09:25:10;;;;;;;14.27;12.77;;;;;;;;;;5034407;28;20210;-72
2022/01/26 09:27:38;;;;;;;13.73;12.33;;;;;;;;;;5025323;28;20215;-71
2022/01/26 09:30:07;;;;;;;14.97;13.33;;;;;;;;;;5023799;28;20217;-72
2022/01/26 09:32:37;;;;;;;14.43;12.93;;;;;;;;;;5010101;28;20207;-71
2022/01/26 09:35:13;;;;;;;14.30;12.80;;;;;;;;;;5024050;28;20195;-74
2022/01/26 09:37:41;;;;;;;14.20;12.80;;;;;;;;;;5024109;28;20253;-71
2022/01/26 09:40:19;;;;;;;14.40;13.00;;;;;;;;;;5024007;28;20192;-68
2022/01/26 09:42:51;;;;;;;13.77;12.43;;;;;;;;;;5022900;28;20811;-69
2022/01/26 09:45:20;;;;;;;13.67;12.37;;;;;;;;;;5024822;28;20278;-68
2022/01/26 09:47:50;;;;;;;14.30;12.90;;;;;;;;;;5025033;28;20218;-70
2022/01/26 09:50:35;;;;;;;14.30;12.90;;;;;;;;;;5026076;28;20199;-70
2022/01/26 09:53:06;;;;;;;13.07;11.77;;;;;;;;;;5018267;28;20247;-71
2022/01/26 09:55:36;;;;;;;13.30;12.00;;;;;;;;;;5023280;28;20222;-72
2022/01/26 09:58:09;;;;;;;13.27;11.87;;;;;;;;;;5026746;28;20229;-73
2022/01/26 10:00:41;;;;;;;13.23;12.03;;;;;;;;;;5023896;28;20215;-70
2022/01/26 10:03:16;;;;;;;12.43;11.23;;;;;;;;;;5024407;28;20223;-70
2022/01/26 10:05:49;;;;;;;12.30;11.10;;;;;;;;;;5024119;28;20216;-70
2022/01/26 10:08:49;;;;;;;13.27;11.87;;;;;;;;;;5024290;28;20199;-73
2022/01/26 10:17:19;;;;;;;12.53;11.27;;;;;;;;;;5012450;28;20202;-73
2022/01/26 10:19:33;;;;;;;11.97;10.83;;;;;;;;;;5026335;28;20195;-76
2022/01/26 10:22:04;;;;;;;13.20;11.90;;;;;;;;;;5027884;28;20246;-72
2022/01/26 10:24:35;;;;;;;13.63;12.33;;;;;;;;;;5025425;28;20295;-73
2022/01/26 10:27:05;;;;;;;11.63;10.53;;;;;;;;;;5024766;28;20199;-69
2022/01/26 10:29:37;;;;;;;12.47;11.27;;;;;;;;;;5023366;28;20576;-69
2022/01/26 10:32:17;;;;;;;11.93;10.77;;;;;;;;;;5025809;28;20206;-72
2022/01/26 10:34:57;;;;;;;11.43;10.37;;;;;;;;;;5027297;28;20213;-71
2022/01/26 10:37:27;;;;;;;11.90;10.77;;;;;;;;;;5023490;28;20242;-73
2022/01/26 10:40:09;;;;;;;12.37;11.13;;;;;;;;;;5023874;28;20210;-72
2022/01/26 10:42:40;;;;;;;12.70;10.80;;;;;;;;;;5029815;28;20707;-70
2022/01/26 10:45:16;;;;;;;12.57;11.27;;;;;;;;;;5027094;28;20206;-70
2022/01/26 10:47:47;;;;;;;11.77;10.60;;;;;;;;;;5024137;28;20194;-72
2022/01/26 10:53:20;;;;;;;11.03;10.03;;;;;;;;;;5002625;28;20565;-70
2022/01/26 10:56:03;;;;;;;11.33;10.00;;;;;;;;;;5009841;28;20230;-71
2022/01/26 10:58:34;;;;;;;11.53;10.43;;;;;;;;;;5024030;28;20219;-71
2022/01/26 11:01:05;;;;;;;10.87;9.87;;;;;;;;;;5027041;28;20203;-71
2022/01/26 11:03:48;;;;;;;10.93;9.83;;;;;;;;;;5023986;28;20201;-70
2022/01/26 11:06:18;;;;;;;10.80;9.70;;;;;;;;;;5021324;28;20257;-71
2022/01/26 11:08:48;;;;;;;10.93;9.83;;;;;;;;;;5026655;28;20198;-69
2022/01/26 11:11:22;;;;;;;10.63;9.63;;;;;;;;;;5022859;28;20207;-68
2022/01/26 11:13:52;;;;;;;13.63;12.23;;;;;;;;;;5015539;28;20216;-68
2022/01/26 11:16:53;;;;;;;14.73;13.23;;;;;;;;;;5030378;28;20207;-69
2022/01/26 11:19:25;;;;;;;15.20;13.60;;;;;;;;;;5033136;28;20607;-70
2022/01/26 11:21:54;;;;;;;16.20;14.50;;;;;;;;;;5037849;28;20219;-67
2022/01/26 11:24:49;;;;;;;15.67;14.00;;;;;;;;;;5033605;28;20187;-67
2022/01/26 11:27:21;;;;;;;16.03;14.33;;;;;;;;;;5023084;28;20250;-67
2022/01/26 11:29:54;;;;;;;15.90;14.20;;;;;;;;;;5023633;28;20214;-68
2022/01/26 11:32:30;;;;;;;15.97;14.37;;;;;;;;;;5030413;28;20221;-70
2022/01/26 11:35:10;;;;;;;16.03;14.33;;;;;;;;;;5030147;28;20190;-69
2022/01/26 11:37:48;;;;;;;17.00;15.30;;;;;;;;;;5029660;28;20301;-70
2022/01/26 11:46:11;;;;;;;16.73;14.80;;;;;;;;;;5016457;28;20210;-70
2022/01/26 11:48:42;;;;;;;14.87;13.07;;;;;;;;;;5010963;28;20617;-71
2022/01/26 11:51:13;;;;;;;14.40;12.87;;;;;;;;;;5025052;28;20226;-69
2022/01/26 11:53:45;;;;;;;12.70;11.40;;;;;;;;;;5025237;28;20683;-68
2022/01/26 11:56:19;;;;;;;12.17;10.97;;;;;;;;;;5027637;28;20655;-66
2022/01/26 11:58:53;;;;;;;12.87;11.57;;;;;;;;;;5003737;28;20215;-65
2022/01/26 12:01:28;;;;;;;12.87;11.47;;;;;;;;;;5022174;28;20268;-70
2022/01/26 12:04:08;;;;;;;13.17;10.53;;;;;;;;;;5026814;28;20357;-69
2022/01/26 12:06:42;;;;;;;11.43;10.00;;;;;;;;;;5032526;28;20214;-67
2022/01/26 12:09:12;;;;;;;11.47;9.97;;;;;;;;;;5025418;28;21044;-69
2022/01/26 12:11:43;;;;;;;10.90;9.33;;;;;;;;;;5012826;28;20195;-69
2022/01/26 12:14:19;;;;;;;11.33;9.50;;;;;;;;;;4994687;28;20203;-68
2022/01/26 12:16:53;;;;;;;13.53;9.27;;;;;;;;;;5019308;28;20513;-69
2022/01/26 12:34:21;;;;;;;9.73;8.80;;;;;;;;;;5019788;28;20253;-69
2022/01/26 12:37:06;;;;;;;9.17;8.23;;;;;;;;;;5022233;28;20234;-69
2022/01/26 12:45:30;;;;;;;9.40;8.50;;;;;;;;;;5026923;28;20195;-68
2022/01/26 12:48:09;;;;;;;9.90;8.67;;;;;;;;;;5023882;28;20222;-68
2022/01/26 12:50:40;;;;;;;8.47;7.67;;;;;;;;;;5026979;28;21069;-68
2022/01/26 12:53:11;;;;;;;9.63;8.07;;;;;;;;;;5028745;28;20218;-69
2022/01/26 12:55:45;;;;;;;8.80;7.83;;;;;;;;;;5029491;28;20661;-68
2022/01/26 12:58:24;;;;;;;7.97;7.17;;;;;;;;;;5027355;28;20230;-68
2022/01/26 13:01:10;;;;;;;9.93;7.77;;;;;;;;;;5043090;28;20199;-69
2022/01/26 13:03:41;;;;;;;8.80;7.67;;;;;;;;;;5037153;28;20673;-70
2022/01/26 13:06:27;;;;;;;9.07;7.83;;;;;;;;;;5022039;28;20330;-67
2022/01/26 13:09:26;;;;;;;9.10;8.20;;;;;;;;;;5017907;28;20771;-70
2022/01/26 13:11:59;;;;;;;9.00;7.57;;;;;;;;;;5027748;28;20294;-70
2022/01/26 13:14:56;;;;;;;8.00;7.30;;;;;;;;;;5034757;28;20265;-68
2022/01/26 13:26:12;;;;;;;10.87;7.67;;;;;;;;;;5032402;28;20203;-69
2022/01/26 13:29:10;;;;;;;8.40;7.40;;;;;;;;;;5024329;28;20680;-69
2022/01/26 13:51:10;;;;;;;8.53;7.63;;;;;;;;;;5012803;28;20191;-69
2022/01/26 13:53:55;;;;;;;8.30;7.60;;;;;;;;;;5022245;28;20297;-68
2022/01/26 13:56:51;;;;;;;8.27;7.47;;;;;;;;;;5013337;28;20252;-70
2022/01/26 13:59:43;;;;;;;7.63;6.93;;;;;;;;;;5026930;28;20213;-72
2022/01/26 14:02:13;;;;;;;7.63;6.90;;;;;;;;;;5037850;28;20199;-70
2022/01/26 14:04:47;;;;;;;8.93;7.17;;;;;;;;;;5024802;28;20640;-69
2022/01/26 14:07:20;;;;;;;8.13;7.33;;;;;;;;;;5016923;28;20308;-70
2022/01/26 14:09:49;;;;;;;8.57;7.53;;;;;;;;;;5031112;28;20256;-72
2022/01/26 14:12:25;;;;;;;7.87;7.07;;;;;;;;;;5024645;28;20742;-69
2022/01/26 14:14:57;;;;;;;8.27;7.10;;;;;;;;;;5025207;28;20900;-70
2022/01/26 14:17:40;;;;;;;8.27;7.47;;;;;;;;;;5006523;28;20200;-69
2022/01/26 14:20:29;;;;;;;8.03;7.23;;;;;;;;;;5027809;28;20828;-70
2022/01/26 14:25:55;;;;;;;8.00;7.30;;;;;;;;;;5028757;28;20195;-69
2022/01/26 14:28:35;;;;;;;9.90;7.50;;;;;;;;;;5032881;28;20207;-69
2022/01/26 14:31:22;;;;;;;8.33;7.50;;;;;;;;;;5012596;28;20215;-69
2022/01/26 14:34:22;;;;;;;7.40;6.70;;;;;;;;;;5020856;28;20288;-69
2022/01/26 15:22:51;;;;;;;9.07;8.20;;;;;;;;;;5004902;28;20207;-71
2022/01/26 15:33:28;;;;;;;8.00;7.20;;;;;;;;;;5001634;28;20219;-69
2022/01/26 15:44:39;;;;;;;7.73;7.03;;;;;;;;;;5024027;28;20226;-69
2022/01/26 15:50:44;;;;;;;6.27;5.67;;;;;;;;;;5024638;28;20191;-73
2022/01/26 16:08:29;;;;;;;6.90;6.13;;;;;;;;;;5030958;28;20207;-74
2022/01/26 16:26:21;;;;;;;6.60;6.00;;;;;;;;;;4958475;29;20224;-69
2022/01/26 18:18:00;;;;;;;12.10;10.23;;;;;;;;;;5019346;28;20543;-73
2022/01/26 18:26:15;;;;;;;14.00;11.17;;;;;;;;;;5019583;28;20184;-73
2022/01/26 18:32:10;;;;;;;14.33;11.50;;;;;;;;;;4959921;28;20633;-73
2022/01/26 18:51:37;;;;;;;16.40;11.13;;;;;;;;;;5035078;28;20195;-72
2022/01/26 18:54:06;;;;;;;14.30;11.37;;;;;;;;;;5015808;28;20199;-73
2022/01/26 18:56:36;;;;;;;13.80;11.37;;;;;;;;;;5012501;28;20216;-72
2022/01/26 18:59:11;;;;;;;13.33;11.00;;;;;;;;;;5021624;28;20674;-72
2022/01/26 19:01:43;;;;;;;12.20;10.50;;;;;;;;;;5020350;28;20195;-72
2022/01/26 19:04:47;;;;;;;12.83;11.00;;;;;;;;;;4998370;28;20955;-72
2022/01/26 19:07:17;;;;;;;15.27;10.97;;;;;;;;;;5013417;28;20555;-73
2022/01/26 19:09:49;;;;;;;13.07;11.07;;;;;;;;;;5023484;28;20205;-72
2022/01/26 19:12:22;;;;;;;12.47;10.57;;;;;;;;;;5022170;28;20609;-72
2022/01/26 19:15:00;;;;;;;14.10;11.53;;;;;;;;;;5019662;28;20283;-72
2022/01/26 19:17:49;;;;;;;14.37;10.90;;;;;;;;;;5018878;28;20278;-72
2022/01/26 19:23:04;;;;;;;13.93;11.33;;;;;;;;;;5016856;28;20201;-72
2022/01/26 19:25:42;;;;;;;14.63;11.03;;;;;;;;;;5020636;28;20297;-72
2022/01/26 19:28:27;;;;;;;12.37;10.90;;;;;;;;;;5021780;28;20234;-72
2022/01/26 19:44:41;;;;;;;13.00;10.77;;;;;;;;;;5012675;28;20211;-71
2022/01/26 19:47:19;;;;;;;13.77;10.87;;;;;;;;;;5026519;28;20214;-72
2022/01/26 19:52:41;;;;;;;13.50;10.97;;;;;;;;;;5023430;28;20249;-72
2022/01/26 19:55:15;;;;;;;16.63;10.60;;;;;;;;;;5014273;28;20214;-70
2022/01/26 19:57:43;;;;;;;12.37;9.93;;;;;;;;;;5025982;28;20202;-71
2022/01/26 20:00:13;;;;;;;22.23;10.90;;;;;;;;;;5026954;28;20331;-70
2022/01/26 20:02:49;;;;;;;15.20;10.37;;;;;;;;;;5030750;28;20199;-71
2022/01/26 20:05:24;;;;;;;14.17;9.47;;;;;;;;;;5025420;28;20230;-72
2022/01/26 20:08:02;;;;;;;21.87;10.67;;;;;;;;;;5012745;28;20219;-70
2022/01/26 20:10:36;;;;;;;44.77;15.97;;;;;;;;;;5023135;28;20191;-72
2022/01/26 20:13:19;;;;;;;91.53;24.57;;;;;;;;;;5011990;28;20723;-68
2022/01/26 20:15:48;;;;;;;81.43;23.03;;;;;;;;;;5016272;28;20195;-70
2022/01/26 20:18:20;;;;;;;56.30;18.97;;;;;;;;;;5006894;28;20209;-69
2022/01/26 20:20:53;;;;;;;42.00;17.83;;;;;;;;;;5009579;28;20211;-69
2022/01/26 20:23:34;;;;;;;44.90;18.63;;;;;;;;;;5029133;28;20362;-69
2022/01/26 20:26:06;;;;;;;34.83;16.00;;;;;;;;;;5004186;28;20235;-67
2022/01/26 20:28:38;;;;;;;35.40;17.00;;;;;;;;;;5028413;28;20211;-67
2022/01/26 20:31:23;;;;;;;33.77;15.77;;;;;;;;;;5020119;28;20214;-68
2022/01/26 20:33:54;;;;;;;31.67;15.60;;;;;;;;;;5026861;28;20203;-68
2022/01/26 20:36:30;;;;;;;31.63;15.43;;;;;;;;;;5012190;28;20235;-67
2022/01/26 20:39:04;;;;;;;25.47;14.47;;;;;;;;;;5004989;28;20301;-67
2022/01/26 20:41:35;;;;;;;20.90;13.93;;;;;;;;;;5025590;28;20224;-68
2022/01/26 20:44:24;;;;;;;25.20;13.43;;;;;;;;;;5018261;28;20224;-68
2022/01/26 20:46:54;;;;;;;22.67;13.73;;;;;;;;;;5021304;28;20211;-68
2022/01/26 20:49:29;;;;;;;19.73;13.17;;;;;;;;;;5008346;28;20623;-68
2022/01/26 20:51:58;;;;;;;18.87;12.93;;;;;;;;;;5026905;28;20853;-68
2022/01/26 20:54:29;;;;;;;20.93;14.03;;;;;;;;;;5023328;28;20215;-68
2022/01/26 20:56:58;;;;;;;19.40;12.90;;;;;;;;;;5023511;28;20636;-68
2022/01/26 20:59:26;;;;;;;19.07;12.37;;;;;;;;;;5025516;28;20207;-68
2022/01/26 21:01:55;;;;;;;21.10;13.70;;;;;;;;;;5026017;28;20227;-68
2022/01/26 21:04:26;;;;;;;17.23;13.10;;;;;;;;;;5024854;28;20951;-68
2022/01/26 21:06:57;;;;;;;20.40;12.13;;;;;;;;;;4997840;28;20266;-68
2022/01/26 21:09:28;;;;;;;16.70;11.40;;;;;;;;;;5022920;28;20218;-68
2022/01/26 21:11:59;;;;;;;16.10;11.80;;;;;;;;;;5004690;28;20536;-68
2022/01/26 21:14:31;;;;;;;17.97;11.80;;;;;;;;;;5019217;28;20215;-69
2022/01/26 21:17:02;;;;;;;15.40;11.87;;;;;;;;;;5013742;28;20295;-69
2022/01/26 21:19:37;;;;;;;17.10;12.27;;;;;;;;;;5018003;28;20217;-69
2022/01/26 21:22:06;;;;;;;16.60;12.60;;;;;;;;;;5021493;28;20211;-69
2022/01/26 21:24:40;;;;;;;19.97;12.17;;;;;;;;;;5019408;28;20231;-69
2022/01/26 21:27:13;;;;;;;16.40;11.40;;;;;;;;;;5016065;28;20276;-69
2022/01/26 21:29:49;;;;;;;17.87;11.60;;;;;;;;;;5017789;28;20211;-69
2022/01/26 21:32:21;;;;;;;13.90;11.27;;;;;;;;;;5038941;28;20211;-69
2022/01/26 21:34:58;;;;;;;13.17;10.83;;;;;;;;;;5018891;28;20215;-69
2022/01/26 21:37:31;;;;;;;16.10;11.47;;;;;;;;;;5008990;28;20680;-70
2022/01/26 21:40:01;;;;;;;15.30;11.07;;;;;;;;;;5004720;28;20578;-69
2022/01/26 21:42:38;;;;;;;14.30;11.13;;;;;;;;;;4994746;28;20219;-69
2022/01/26 21:45:10;;;;;;;14.40;10.87;;;;;;;;;;5001409;28;20665;-69
2022/01/26 21:47:42;;;;;;;13.80;10.67;;;;;;;;;;5003822;28;20214;-69
2022/01/26 21:50:15;;;;;;;13.43;10.17;;;;;;;;;;5001811;28;20214;-69
2022/01/26 21:52:45;;;;;;;14.43;10.90;;;;;;;;;;5003791;28;20227;-69